Nice, France
Current Conditions -  °F | °C
As of 2:30 AM on Friday 28 Nov 2014 (Local Time) from LFMN Reporting Station
Broken Clouds Broken Clouds  
Wind Chill: 55°   Ceiling: 7000
Heat Index: 55°   Visibility: 6mi
Dew Point: 52°   Wind: 9mph
Humidity: 88%   Direction: 330°NNW
Pressure: 29.8"   Gusts: NA
Location:  43.7°N, 7.27°E
Report Text: LFMN 280130Z 33008KT 9999 BKN070 13/11 Q1009 TEMPO SHRA
Loading
Personal Weather Stations






























Interactive Weather Map New forecast layout! Learn more

10-Day Weather Forecast

Advertisements
Track Severe Weather on mobile